createdAt,value
2017-03-11T00:00:08.076Z,34.8
2017-03-11T00:02:05.798Z,34.8
2017-03-11T00:04:05.375Z,34.9
2017-03-11T00:06:05.173Z,34.9
2017-03-11T00:08:05.435Z,34.9
2017-03-11T00:10:08.050Z,34.9
2017-03-11T00:12:11.146Z,34.9
2017-03-11T00:14:05.860Z,34.9
2017-03-11T00:16:05.961Z,35.1
2017-03-11T00:18:05.096Z,34.8
2017-03-11T00:20:05.820Z,34.8
2017-03-11T00:22:05.398Z,34.9
2017-03-11T00:24:05.158Z,34.8
2017-03-11T00:26:06.012Z,34.8
2017-03-11T00:28:05.789Z,34.8
2017-03-11T00:30:05.558Z,34.8
2017-03-11T00:32:05.521Z,34.8
2017-03-11T00:34:05.843Z,34.8
2017-03-11T00:36:08.228Z,34.8
2017-03-11T00:38:05.100Z,34.8
2017-03-11T00:40:10.985Z,34.7
2017-03-11T00:42:05.697Z,34.8
2017-03-11T00:44:10.739Z,35
2017-03-11T00:46:05.609Z,35
2017-03-11T00:48:05.867Z,34.7
2017-03-11T00:50:05.556Z,35.1
2017-03-11T00:52:05.444Z,35.1
2017-03-11T00:54:05.256Z,35.1
2017-03-11T00:56:05.970Z,34.9
2017-03-11T00:58:06.047Z,34.8
2017-03-11T01:00:06.137Z,34.8
2017-03-11T01:02:05.910Z,34.7
2017-03-11T01:04:05.812Z,34.7
2017-03-11T01:06:05.524Z,34.7
2017-03-11T01:08:05.753Z,34.7
2017-03-11T01:10:05.807Z,34.6
2017-03-11T01:12:05.585Z,34.6
2017-03-11T01:14:05.321Z,34.6
2017-03-11T01:16:05.391Z,34.6
2017-03-11T01:18:05.368Z,34.5
2017-03-11T01:20:05.071Z,34.5
2017-03-11T01:22:05.938Z,34.5
2017-03-11T01:24:05.628Z,34.5
2017-03-11T01:26:05.358Z,34.5
2017-03-11T01:28:05.381Z,34.5
2017-03-11T01:30:05.075Z,34.4
2017-03-11T01:32:06.054Z,34.4
2017-03-11T01:34:05.949Z,34.4
2017-03-11T01:36:05.976Z,34.3
2017-03-11T01:38:05.800Z,34.3
2017-03-11T01:40:05.902Z,34.3
2017-03-11T01:42:05.647Z,34.4
2017-03-11T01:44:05.939Z,34.3
2017-03-11T01:46:05.910Z,34.3
2017-03-11T01:48:05.490Z,34.2
2017-03-11T01:50:05.168Z,34.3
2017-03-11T01:52:11.067Z,34.2
2017-03-11T01:54:05.864Z,34.2
2017-03-11T01:56:05.611Z,34.2
2017-03-11T01:58:08.757Z,34.2
2017-03-11T02:00:08.017Z,34.2
2017-03-11T02:02:05.822Z,34.2
2017-03-11T02:04:08.069Z,34.1
2017-03-11T02:06:05.816Z,34.1
2017-03-11T02:08:05.545Z,34.1
2017-03-11T02:10:05.645Z,34.2
2017-03-11T02:12:05.410Z,34.1
2017-03-11T02:14:05.180Z,34.1
2017-03-11T02:16:05.629Z,34.1
2017-03-11T02:18:05.506Z,34.1
2017-03-11T02:20:05.416Z,34.1
2017-03-11T02:22:05.357Z,34.1
2017-03-11T02:24:10.148Z,34.1
2017-03-11T02:26:05.934Z,34.1
2017-03-11T02:28:05.537Z,34.1
2017-03-11T02:30:05.251Z,34.1
2017-03-11T02:32:05.987Z,34.1
2017-03-11T02:34:06.040Z,34.1
2017-03-11T02:36:06.093Z,34.1
2017-03-11T02:38:05.919Z,34
2017-03-11T02:40:06.216Z,34.1
2017-03-11T02:42:05.465Z,34
2017-03-11T02:44:06.126Z,34
2017-03-11T02:46:06.256Z,34
2017-03-11T02:48:05.309Z,34
2017-03-11T02:50:05.241Z,33.9
2017-03-11T02:52:06.206Z,34
2017-03-11T02:54:05.056Z,33.7
2017-03-11T02:56:08.365Z,34
2017-03-11T02:58:08.653Z,34
2017-03-11T03:00:10.454Z,33.9
2017-03-11T03:02:05.219Z,33.9
2017-03-11T03:04:06.249Z,33.9
2017-03-11T03:06:05.995Z,33.9
2017-03-11T03:08:11.046Z,33.9
2017-03-11T03:10:05.462Z,33.9
2017-03-11T03:12:05.743Z,33.9
2017-03-11T03:14:05.970Z,33.9
2017-03-11T03:16:05.537Z,33.7
2017-03-11T03:18:05.038Z,33.9
2017-03-11T03:20:05.856Z,33.6
2017-03-11T03:22:05.757Z,33.6
2017-03-11T03:24:05.647Z,33.6
2017-03-11T03:26:05.405Z,33.7
2017-03-11T03:28:05.450Z,33.8
2017-03-11T03:30:05.235Z,33.6
2017-03-11T03:32:05.946Z,33.6
2017-03-11T03:34:06.100Z,33.6
2017-03-11T03:36:10.388Z,33.6
2017-03-11T03:38:05.093Z,33.7
2017-03-11T03:40:06.130Z,33.7
2017-03-11T03:42:05.881Z,33.6
2017-03-11T03:44:05.612Z,33.6
2017-03-11T03:46:06.194Z,33.6
2017-03-11T03:48:05.421Z,33.6
2017-03-11T03:50:05.146Z,33.6
2017-03-11T03:52:06.268Z,33.5
2017-03-11T03:54:06.014Z,33.6
2017-03-11T03:56:13.581Z,33.7
2017-03-11T03:58:05.448Z,33.5
2017-03-11T04:00:05.714Z,33.5
2017-03-11T04:02:05.987Z,33.5
2017-03-11T04:04:05.825Z,33.7
2017-03-11T04:06:05.588Z,33.5
2017-03-11T04:08:05.345Z,33.4
2017-03-11T04:10:05.395Z,33.7
2017-03-11T04:12:05.487Z,33.4
2017-03-11T04:14:08.329Z,33.4
2017-03-11T04:16:07.775Z,33.5
2017-03-11T04:18:05.740Z,33.5
2017-03-11T04:20:10.570Z,33.4
2017-03-11T04:22:05.626Z,33.4
2017-03-11T04:24:05.856Z,33.7
2017-03-11T04:26:08.239Z,33.4
2017-03-11T04:28:06.262Z,33.4
2017-03-11T04:30:08.490Z,33.4
2017-03-11T04:32:05.327Z,33.4
2017-03-11T04:34:05.383Z,33.4
2017-03-11T04:36:05.198Z,33.4
2017-03-11T04:38:07.984Z,33.3
2017-03-11T04:40:06.103Z,33.6
2017-03-11T04:42:10.910Z,33.3
2017-03-11T04:44:08.049Z,33.3
2017-03-11T04:46:08.587Z,33.3
2017-03-11T04:48:10.407Z,33.3
2017-03-11T04:50:05.163Z,33.3
2017-03-11T04:52:08.719Z,33.3
2017-03-11T04:54:05.479Z,33.3
2017-03-11T04:56:05.214Z,33.3
2017-03-11T04:58:06.321Z,33.3
2017-03-11T05:00:12.817Z,33.3
2017-03-11T05:02:05.581Z,33.3
2017-03-11T05:04:05.598Z,33.3
2017-03-11T05:06:07.882Z,33.3
2017-03-11T05:08:05.592Z,33.3
2017-03-11T05:10:06.185Z,33.3
2017-03-11T05:12:08.433Z,33.5
2017-03-11T05:14:05.190Z,33.2
2017-03-11T05:16:08.738Z,33.2
2017-03-11T05:18:05.661Z,33.2
2017-03-11T05:20:05.918Z,33.2
2017-03-11T05:22:05.977Z,33.2
2017-03-11T05:24:08.235Z,33.1
2017-03-11T05:26:05.240Z,33.1
2017-03-11T05:28:05.877Z,33.2
2017-03-11T05:30:05.608Z,33.2
2017-03-11T05:32:05.706Z,33.2
2017-03-11T05:34:05.622Z,33.2
2017-03-11T05:36:05.411Z,33.2
2017-03-11T05:38:05.133Z,33.2
2017-03-11T05:40:05.605Z,33.2
2017-03-11T05:42:07.837Z,33.2
2017-03-11T05:44:05.545Z,33.2
2017-03-11T05:46:05.533Z,33.2
2017-03-11T05:48:07.908Z,33.2
2017-03-11T05:50:05.668Z,33.1
2017-03-11T05:52:05.630Z,33.2
2017-03-11T05:54:05.448Z,33.1
2017-03-11T05:56:05.213Z,33.2
2017-03-11T05:58:06.148Z,33.1
2017-03-11T06:00:05.867Z,33.2
2017-03-11T06:02:08.123Z,33.2
2017-03-11T06:04:06.200Z,33.2
2017-03-11T06:06:10.987Z,33.1
2017-03-11T06:08:08.304Z,33.1
2017-03-11T06:10:05.265Z,33.1
2017-03-11T06:12:05.994Z,33.1
2017-03-11T06:14:05.811Z,33.1
2017-03-11T06:16:05.682Z,33
2017-03-11T06:18:05.621Z,33
2017-03-11T06:20:06.099Z,33.1
2017-03-11T06:22:06.018Z,33.1
2017-03-11T06:24:05.329Z,33.1
2017-03-11T06:26:05.063Z,33
2017-03-11T06:28:05.953Z,33.1
2017-03-11T06:30:05.719Z,33
2017-03-11T06:32:05.488Z,33.2
2017-03-11T06:34:08.111Z,33.2
2017-03-11T06:36:06.189Z,33.2
2017-03-11T06:38:08.488Z,33.4
2017-03-11T06:40:05.397Z,33.4
2017-03-11T06:42:05.691Z,33.6
2017-03-11T06:44:05.060Z,33.7
2017-03-11T06:46:06.060Z,33.3
2017-03-11T06:48:05.286Z,33.5
2017-03-11T06:50:06.031Z,33.4
2017-03-11T06:52:06.054Z,33.4
2017-03-11T06:54:05.762Z,33.4
2017-03-11T06:56:05.559Z,33.6
2017-03-11T06:58:05.714Z,33.5
2017-03-11T07:00:06.752Z,33.4
2017-03-11T07:02:10.503Z,33.6
2017-03-11T07:04:05.839Z,33.6
2017-03-11T07:06:08.055Z,33.5
2017-03-11T07:08:05.987Z,33.5
2017-03-11T07:10:10.953Z,33.6
2017-03-11T07:12:05.730Z,33.6
2017-03-11T07:14:05.564Z,33.6
2017-03-11T07:16:05.658Z,33.4
2017-03-11T07:18:05.555Z,33.7
2017-03-11T07:20:07.772Z,33.6
2017-03-11T07:22:05.358Z,33.6
2017-03-11T07:24:06.053Z,33.5
2017-03-11T07:26:07.859Z,33.4
2017-03-11T07:28:05.819Z,33.4
2017-03-11T07:30:07.677Z,33.6
2017-03-11T07:32:05.921Z,33.6
2017-03-11T07:34:05.899Z,33.8
2017-03-11T07:36:07.661Z,33.7
2017-03-11T07:38:10.424Z,33.6
2017-03-11T07:40:05.322Z,33.6
2017-03-11T07:42:07.709Z,33.5
2017-03-11T07:44:05.474Z,33.5
2017-03-11T07:46:07.853Z,33.6
2017-03-11T07:48:05.742Z,33.4
2017-03-11T07:50:05.470Z,33.3
2017-03-11T07:52:15.639Z,33.2
2017-03-11T07:54:05.395Z,33.2
2017-03-11T07:56:05.682Z,33.3
2017-03-11T07:58:05.803Z,33.2
2017-03-11T08:00:05.616Z,33.1
2017-03-11T08:02:05.941Z,33.3
2017-03-11T08:04:05.455Z,33.3
2017-03-11T08:06:05.203Z,33.3
2017-03-11T08:08:05.953Z,33.6
2017-03-11T08:10:05.933Z,33.5
2017-03-11T08:12:08.464Z,33.6
2017-03-11T08:14:05.241Z,33.6
2017-03-11T08:16:08.723Z,33.7
2017-03-11T08:18:05.822Z,33.7
2017-03-11T08:20:07.809Z,33.8
2017-03-11T08:22:08.314Z,33.8
2017-03-11T08:24:05.063Z,33.8
2017-03-11T08:26:05.939Z,33.8
2017-03-11T08:28:06.064Z,34
2017-03-11T08:30:05.904Z,34
2017-03-11T08:32:05.676Z,33.8
2017-03-11T08:34:05.580Z,33.8
2017-03-11T08:36:05.860Z,33.9
2017-03-11T08:38:10.635Z,33.7
2017-03-11T08:40:05.984Z,33.7
2017-03-11T08:42:05.858Z,33.8
2017-03-11T08:44:05.916Z,33.7
2017-03-11T08:46:05.493Z,34
2017-03-11T08:48:05.715Z,33.8
2017-03-11T08:50:05.909Z,33.7
2017-03-11T08:52:05.768Z,33.9
2017-03-11T08:54:08.059Z,33.7
2017-03-11T08:56:05.830Z,33.8
2017-03-11T08:58:05.851Z,33.9
2017-03-11T09:00:05.972Z,33.6
2017-03-11T09:02:05.805Z,33.8
2017-03-11T09:04:05.913Z,33.6
2017-03-11T09:06:05.946Z,33.8
2017-03-11T09:08:08.433Z,33.6
2017-03-11T09:10:06.505Z,33.6
2017-03-11T09:12:08.308Z,33.6
2017-03-11T09:14:05.076Z,33.6
2017-03-11T09:16:06.164Z,33.5
2017-03-11T09:18:06.598Z,33.8
2017-03-11T09:20:05.546Z,33.8
2017-03-11T09:22:05.535Z,33.6
2017-03-11T09:24:08.328Z,33.4
2017-03-11T09:26:05.055Z,33.4
2017-03-11T09:28:05.728Z,33.4
2017-03-11T09:30:05.508Z,33.5
2017-03-11T09:32:05.577Z,33.3
2017-03-11T09:34:05.790Z,33.2
2017-03-11T09:36:08.058Z,33.3
2017-03-11T09:38:05.270Z,33.2
2017-03-11T09:40:05.836Z,33.1
2017-03-11T09:42:05.808Z,33.2
2017-03-11T09:44:05.572Z,33.3
2017-03-11T09:46:05.583Z,33.4
2017-03-11T09:48:05.628Z,33.3
2017-03-11T09:50:05.389Z,33.1
2017-03-11T09:52:05.363Z,33.2
2017-03-11T09:54:07.744Z,33.1
2017-03-11T09:56:05.587Z,33.1
2017-03-11T09:58:05.818Z,33
2017-03-11T10:00:10.638Z,33.1
2017-03-11T10:02:05.734Z,33.1
2017-03-11T10:04:10.911Z,32.9
2017-03-11T10:06:05.643Z,32.9
2017-03-11T10:08:05.499Z,32.9
2017-03-11T10:10:05.352Z,33.1
2017-03-11T10:12:12.760Z,33.1
2017-03-11T10:14:05.572Z,33.1
2017-03-11T10:16:08.269Z,32.9
2017-03-11T10:18:05.193Z,32.9
2017-03-11T10:20:06.198Z,32.8
2017-03-11T10:22:11.107Z,33
2017-03-11T10:24:06.102Z,33
2017-03-11T10:26:05.383Z,33.1
2017-03-11T10:28:05.436Z,33.4
2017-03-11T10:30:05.217Z,33.4
2017-03-11T10:32:05.607Z,33.3
2017-03-11T10:34:05.801Z,33
2017-03-11T10:36:05.974Z,33.1
2017-03-11T10:38:05.751Z,33.2
2017-03-11T10:40:05.819Z,33.6
2017-03-11T10:42:05.608Z,33.3
2017-03-11T10:44:05.368Z,33.4
2017-03-11T10:46:05.218Z,33.4
2017-03-11T10:48:05.958Z,33.3
2017-03-11T10:50:08.183Z,33.6
2017-03-11T10:52:06.207Z,33.6
2017-03-11T10:54:07.408Z,33.4
2017-03-11T10:56:10.657Z,33.7
2017-03-11T10:58:05.805Z,33.5
2017-03-11T11:00:10.121Z,33.6
2017-03-11T11:02:05.706Z,33.4
2017-03-11T11:04:13.920Z,33.5
2017-03-11T11:06:08.226Z,33.5
2017-03-11T11:08:06.286Z,33.5
2017-03-11T11:10:10.613Z,33.6
2017-03-11T11:12:05.691Z,33.4
2017-03-11T11:14:05.096Z,33.4
2017-03-11T11:16:13.193Z,33.5
2017-03-11T11:18:05.144Z,33.5
2017-03-11T11:20:10.990Z,33.5
2017-03-11T11:22:05.976Z,33.5
2017-03-11T11:24:09.046Z,33.4
2017-03-11T11:26:05.729Z,33.3
2017-03-11T11:28:05.782Z,33.4
2017-03-11T11:30:05.480Z,33.4
2017-03-11T11:32:08.380Z,33.5
2017-03-11T11:34:05.266Z,33.4
2017-03-11T11:36:05.998Z,33.2
2017-03-11T11:38:05.741Z,33.2
2017-03-11T11:40:08.375Z,33.3
2017-03-11T11:42:05.084Z,33.3
2017-03-11T11:44:05.806Z,33.4
2017-03-11T11:46:05.856Z,33.4
2017-03-11T11:48:05.556Z,33.4
2017-03-11T11:50:05.271Z,33.4
2017-03-11T11:52:11.413Z,33.2
2017-03-11T11:54:10.688Z,33.4
2017-03-11T11:56:20.835Z,33.5
2017-03-11T11:58:09.805Z,33.3
2017-03-11T12:00:05.758Z,33.5
2017-03-11T12:02:09.305Z,33.5
2017-03-11T12:04:07.461Z,33.3
2017-03-11T12:06:06.231Z,33.5
2017-03-11T12:08:05.061Z,33.3
2017-03-11T12:10:08.709Z,33.3
2017-03-11T12:12:05.547Z,33.3
2017-03-11T12:14:10.439Z,33.4
2017-03-11T12:16:15.184Z,33.4
2017-03-11T12:18:05.755Z,33.4
2017-03-11T12:20:08.324Z,33.5
2017-03-11T12:22:05.329Z,33.5
2017-03-11T12:24:05.078Z,33.4
2017-03-11T12:26:08.327Z,33.5
2017-03-11T12:28:07.852Z,33.5
2017-03-11T12:30:05.652Z,33.3
2017-03-11T12:32:06.057Z,33.6
2017-03-11T12:34:06.200Z,33.4
2017-03-11T12:36:05.914Z,33.3
2017-03-11T12:38:05.204Z,33.4
2017-03-11T12:40:08.732Z,33.4
2017-03-11T12:42:10.561Z,33.4
2017-03-11T12:44:05.563Z,33.4
2017-03-11T12:46:08.153Z,33.4
2017-03-11T12:48:05.913Z,33.4
2017-03-11T12:50:06.173Z,33.4
2017-03-11T12:52:05.827Z,33.4
2017-03-11T12:54:05.555Z,33.5
2017-03-11T12:56:05.301Z,33.4
2017-03-11T12:58:07.844Z,33.5
2017-03-11T13:00:05.967Z,33.3
2017-03-11T13:02:05.726Z,33.6
2017-03-11T13:04:05.828Z,33.3
2017-03-11T13:06:05.775Z,33.3
2017-03-11T13:08:05.071Z,33.3
2017-03-11T13:10:05.485Z,33.3
2017-03-11T13:12:06.439Z,33.3
2017-03-11T13:14:06.112Z,33.4
2017-03-11T13:16:05.636Z,33.3
2017-03-11T13:18:05.599Z,33.4
2017-03-11T13:20:05.396Z,33.4
2017-03-11T13:22:05.694Z,33.4
2017-03-11T13:24:05.663Z,33.4
2017-03-11T13:26:05.443Z,33.4
2017-03-11T13:28:06.068Z,33.4
2017-03-11T13:30:05.816Z,33.2
2017-03-11T13:32:08.434Z,33.4
2017-03-11T13:34:05.286Z,33.4
2017-03-11T13:36:06.016Z,33.2
2017-03-11T13:38:05.829Z,33.2
2017-03-11T13:40:05.488Z,33.2
2017-03-11T13:42:05.689Z,33.2
2017-03-11T13:44:05.390Z,33.3
2017-03-11T13:46:07.850Z,33.3
2017-03-11T13:48:08.464Z,33.2
2017-03-11T13:50:05.211Z,33.2
2017-03-11T13:52:11.160Z,33.4
2017-03-11T13:54:05.888Z,33.3
2017-03-11T13:56:08.194Z,33.5
2017-03-11T13:58:06.042Z,33.5
2017-03-11T14:00:05.853Z,33.6
2017-03-11T14:02:05.617Z,33.7
2017-03-11T14:04:08.248Z,33.8
2017-03-11T14:06:05.975Z,33.8
2017-03-11T14:08:05.723Z,33.8
2017-03-11T14:10:05.813Z,33.9
2017-03-11T14:12:10.810Z,34
2017-03-11T14:14:05.281Z,34
2017-03-11T14:16:06.367Z,34.1
2017-03-11T14:18:05.588Z,34
2017-03-11T14:20:12.746Z,34.3
2017-03-11T14:22:08.709Z,34.1
2017-03-11T14:24:05.430Z,34.1
2017-03-11T14:26:05.251Z,34.3
2017-03-11T14:28:06.106Z,34.1
2017-03-11T14:30:05.988Z,34.2
2017-03-11T14:32:08.352Z,34.3
2017-03-11T14:34:08.045Z,34.3
2017-03-11T14:36:10.516Z,34.2
2017-03-11T14:38:07.759Z,34.4
2017-03-11T14:40:05.238Z,34.3
2017-03-11T14:42:15.655Z,34.4
2017-03-11T14:44:05.491Z,34.4
2017-03-11T14:46:05.390Z,34.4
2017-03-11T14:48:05.146Z,34.5
2017-03-11T14:50:08.463Z,34.5
2017-03-11T14:52:05.417Z,34.5
2017-03-11T14:54:07.689Z,34.6
2017-03-11T14:56:05.592Z,34.6
2017-03-11T14:58:05.508Z,34.6
2017-03-11T15:00:05.270Z,34.6
2017-03-11T15:02:07.607Z,34.6
2017-03-11T15:04:05.484Z,34.6
2017-03-11T15:06:05.218Z,34.7
2017-03-11T15:08:06.361Z,34.7
2017-03-11T15:10:07.752Z,34.5
2017-03-11T15:12:05.543Z,34.5
2017-03-11T15:14:05.307Z,34.6
2017-03-11T15:16:05.458Z,34.5
2017-03-11T15:18:07.889Z,34.5
2017-03-11T15:20:05.681Z,34.5
2017-03-11T15:22:05.796Z,34.9
2017-03-11T15:24:05.880Z,34.8
2017-03-11T15:26:05.671Z,34.9
2017-03-11T15:28:05.503Z,34.8
2017-03-11T15:30:10.266Z,35
2017-03-11T15:32:05.685Z,35
2017-03-11T15:34:05.800Z,34.9
2017-03-11T15:36:08.063Z,35.1
2017-03-11T15:38:05.344Z,35.1
2017-03-11T15:40:06.198Z,35
2017-03-11T15:42:06.036Z,35.1
2017-03-11T15:44:05.829Z,35.1
2017-03-11T15:46:05.912Z,35.2
2017-03-11T15:48:05.835Z,35.3
2017-03-11T15:50:05.610Z,35.3
2017-03-11T15:52:05.906Z,35.4
2017-03-11T15:54:05.732Z,35.5
2017-03-11T15:56:05.788Z,35.4
2017-03-11T16:00:10.651Z,35.4
2017-03-11T16:02:05.658Z,35.4
2017-03-11T16:04:05.602Z,35.3
2017-03-11T16:06:07.886Z,35.5
2017-03-11T16:08:05.828Z,35.5
2017-03-11T16:10:10.741Z,35.3
2017-03-11T16:12:08.425Z,35.5
2017-03-11T16:14:05.264Z,35.5
2017-03-11T16:16:05.319Z,35.5
2017-03-11T16:18:05.289Z,35.5
2017-03-11T16:20:05.072Z,35.5
2017-03-11T16:22:06.104Z,35.5
2017-03-11T16:24:08.342Z,35.3
2017-03-11T16:26:06.240Z,35.4
2017-03-11T16:28:06.309Z,35.5
2017-03-11T16:30:06.992Z,35.4
2017-03-11T16:32:05.709Z,35.3
2017-03-11T16:34:05.862Z,35.5
2017-03-11T16:36:05.185Z,35.5
2017-03-11T16:38:05.914Z,35.6
2017-03-11T16:40:05.795Z,35.5
2017-03-11T16:42:05.597Z,35.5
2017-03-11T16:44:05.724Z,35.6
2017-03-11T16:46:05.820Z,35.7
2017-03-11T16:48:05.087Z,35.6
2017-03-11T16:50:06.031Z,35.7
2017-03-11T16:52:06.271Z,35.7
2017-03-11T16:54:08.543Z,35.7
2017-03-11T16:56:05.480Z,35.7
2017-03-11T16:58:05.981Z,35.5
2017-03-11T17:00:05.449Z,35.8
2017-03-11T17:02:05.308Z,35.8
2017-03-11T17:04:05.353Z,35.8
2017-03-11T17:06:05.175Z,35.5
2017-03-11T17:08:06.182Z,35.7
2017-03-11T17:10:10.977Z,35.5
2017-03-11T17:12:05.258Z,35.5
2017-03-11T17:14:06.037Z,35.5
2017-03-11T17:16:06.098Z,35.5
2017-03-11T17:18:07.609Z,35.5
2017-03-11T17:20:07.393Z,35.5
2017-03-11T17:22:05.708Z,35.5
2017-03-11T17:24:05.521Z,35.5
2017-03-11T17:26:05.236Z,35.5
2017-03-11T17:28:05.768Z,35.5
2017-03-11T17:30:08.015Z,35.5
2017-03-11T17:32:05.917Z,35.5
2017-03-11T17:34:05.826Z,35.8
2017-03-11T17:36:05.589Z,35.5
2017-03-11T17:38:05.370Z,35.5
2017-03-11T17:40:05.700Z,35.6
2017-03-11T17:42:05.436Z,35.6
2017-03-11T17:44:05.742Z,35.6
2017-03-11T17:46:05.297Z,35.5
2017-03-11T17:48:06.196Z,35.6
2017-03-11T17:50:05.988Z,35.5
2017-03-11T17:52:05.892Z,35.5
2017-03-11T17:54:05.864Z,35.6
2017-03-11T17:56:05.582Z,35.6
2017-03-11T17:58:05.695Z,35.5
2017-03-11T18:00:07.916Z,35.5
2017-03-11T18:02:10.670Z,35.5
2017-03-11T18:04:05.795Z,35.5
2017-03-11T18:06:05.557Z,35.5
2017-03-11T18:08:05.178Z,35.5
2017-03-11T18:10:05.881Z,35.5
2017-03-11T18:12:05.725Z,35.5
2017-03-11T18:14:05.499Z,35.4
2017-03-11T18:16:05.829Z,35.4
2017-03-11T18:18:05.782Z,35.4
2017-03-11T18:20:07.786Z,35.3
2017-03-11T18:22:05.771Z,35.4
2017-03-11T18:24:06.715Z,35.4
2017-03-11T18:26:05.449Z,35.4
2017-03-11T18:28:08.723Z,35.5
2017-03-11T18:30:08.073Z,35.4
2017-03-11T18:32:13.419Z,35.4
2017-03-11T18:34:05.422Z,35.4
2017-03-11T18:36:06.160Z,35.4
2017-03-11T18:38:06.173Z,35.5
2017-03-11T18:40:05.927Z,35.5
2017-03-11T18:42:05.708Z,35.5
2017-03-11T18:44:05.933Z,35.5
2017-03-11T18:46:05.676Z,35.5
2017-03-11T18:48:05.650Z,35.5
2017-03-11T18:50:08.438Z,35.5
2017-03-11T18:52:05.547Z,35.3
2017-03-11T18:54:05.849Z,35.4
2017-03-11T18:56:05.831Z,35.5
2017-03-11T18:58:05.726Z,35.5
2017-03-11T19:00:06.061Z,35.5
2017-03-11T19:02:05.726Z,35.4
2017-03-11T19:04:05.563Z,35.5
2017-03-11T19:06:05.888Z,35.4
2017-03-11T19:08:08.138Z,35.4
2017-03-11T19:10:06.081Z,35.3
2017-03-11T19:12:06.044Z,35.3
2017-03-11T19:14:07.694Z,35.4
2017-03-11T19:16:10.980Z,35.4
2017-03-11T19:18:06.890Z,35.4
2017-03-11T19:20:05.767Z,35.4
2017-03-11T19:22:08.135Z,35.2
2017-03-11T19:24:06.270Z,35.4
2017-03-11T19:26:05.396Z,35.3
2017-03-11T19:28:05.244Z,35.4
2017-03-11T19:30:05.968Z,35.3
2017-03-11T19:32:06.120Z,35.3
2017-03-11T19:34:05.970Z,35.3
2017-03-11T19:36:05.324Z,35
2017-03-11T19:38:10.579Z,35.4
2017-03-11T19:40:05.612Z,35.4
2017-03-11T19:42:05.451Z,35.3
2017-03-11T19:44:10.848Z,35.4
2017-03-11T19:46:05.626Z,35.7
2017-03-11T19:48:05.378Z,35.2
2017-03-11T19:50:05.381Z,35.2
2017-03-11T19:52:07.646Z,35.1
2017-03-11T19:54:10.535Z,35.1
2017-03-11T19:56:08.697Z,35.4
2017-03-11T19:58:05.494Z,35.1
2017-03-11T20:00:10.312Z,35.1
2017-03-11T20:02:05.654Z,35.1
2017-03-11T20:04:05.737Z,35.2
2017-03-11T20:06:08.127Z,35.2
2017-03-11T20:08:05.721Z,35.2
2017-03-11T20:10:07.958Z,35.1
2017-03-11T20:12:05.955Z,35.1
2017-03-11T20:14:06.026Z,35.1
2017-03-11T20:16:10.518Z,35.1
2017-03-11T20:18:08.017Z,35.1
2017-03-11T20:20:06.160Z,35.1
2017-03-11T20:22:05.486Z,35.1
2017-03-11T20:24:05.241Z,35.1
2017-03-11T20:26:06.184Z,35
2017-03-11T20:28:08.001Z,35.1
2017-03-11T20:30:05.800Z,35
2017-03-11T20:32:07.726Z,35
2017-03-11T20:34:07.965Z,35.1
2017-03-11T20:36:05.713Z,35.1
2017-03-11T20:38:08.327Z,35.1
2017-03-11T20:40:07.672Z,35.1
2017-03-11T20:42:05.626Z,35.1
2017-03-11T20:44:10.741Z,35.1
2017-03-11T20:46:08.208Z,35
2017-03-11T20:48:05.948Z,35
2017-03-11T20:50:06.446Z,35.1
2017-03-11T20:52:05.209Z,35
2017-03-11T20:54:06.066Z,35.1
2017-03-11T20:56:08.574Z,35.1
2017-03-11T20:58:05.939Z,35
2017-03-11T21:00:06.426Z,35.1
2017-03-11T21:02:07.820Z,35
2017-03-11T21:04:05.855Z,35
2017-03-11T21:06:05.091Z,35
2017-03-11T21:08:16.218Z,35
2017-03-11T21:10:08.459Z,35
2017-03-11T21:12:05.728Z,35
2017-03-11T21:14:08.174Z,35
2017-03-11T21:16:06.346Z,35
2017-03-11T21:18:05.336Z,35
2017-03-11T21:20:05.389Z,35
2017-03-11T21:22:05.500Z,34.9
2017-03-11T21:24:07.988Z,35
2017-03-11T21:26:06.135Z,35
2017-03-11T21:28:10.906Z,35
2017-03-11T21:30:05.646Z,35
2017-03-11T21:32:10.986Z,35
2017-03-11T21:34:08.563Z,35
2017-03-11T21:36:13.302Z,35
2017-03-11T21:38:11.359Z,35
2017-03-11T21:40:05.082Z,35
2017-03-11T21:42:05.354Z,34.9
2017-03-11T21:44:05.530Z,35
2017-03-11T21:46:07.863Z,34.9
2017-03-11T21:48:05.808Z,35
2017-03-11T21:50:05.375Z,35
2017-03-11T21:52:07.717Z,35
2017-03-11T21:54:05.487Z,35
2017-03-11T21:56:05.399Z,35
2017-03-11T21:58:10.388Z,35
2017-03-11T22:00:05.113Z,35
2017-03-11T22:02:06.393Z,35
2017-03-11T22:04:12.787Z,35
2017-03-11T22:06:08.159Z,34.9
2017-03-11T22:08:06.111Z,34.9
2017-03-11T22:10:05.847Z,35
2017-03-11T22:12:05.610Z,34.9
2017-03-11T22:14:05.889Z,35
2017-03-11T22:16:05.760Z,35
2017-03-11T22:18:05.679Z,34.9
2017-03-11T22:20:11.408Z,34.8
2017-03-11T22:22:07.765Z,34.9
2017-03-11T22:24:05.495Z,34.8
2017-03-11T22:26:08.513Z,34.9
2017-03-11T22:28:05.524Z,34.9
2017-03-11T22:30:07.883Z,34.9
2017-03-11T22:32:05.702Z,34.9
2017-03-11T22:34:05.610Z,34.9
2017-03-11T22:36:08.115Z,34.9
2017-03-11T22:38:06.264Z,34.9
2017-03-11T22:40:05.713Z,34.8
2017-03-11T22:42:05.974Z,34.9
2017-03-11T22:44:08.866Z,34.8
2017-03-11T22:46:05.575Z,34.8
2017-03-11T22:48:05.305Z,35.3
2017-03-11T22:50:05.269Z,34.8
2017-03-11T22:52:05.786Z,34.8
2017-03-11T22:54:05.068Z,34.8
2017-03-11T22:56:06.068Z,34.7
2017-03-11T22:58:05.829Z,34.7
2017-03-11T23:00:05.580Z,34.8
2017-03-11T23:02:08.144Z,34.8
2017-03-11T23:04:11.218Z,34.8
2017-03-11T23:06:05.958Z,34.8
2017-03-11T23:08:05.968Z,34.8
2017-03-11T23:10:05.755Z,34.8
2017-03-11T23:12:08.017Z,34.8
2017-03-11T23:14:06.145Z,34.8
2017-03-11T23:16:05.918Z,34.8
2017-03-11T23:18:05.876Z,34.8
2017-03-11T23:20:05.777Z,34.7
2017-03-11T23:22:05.614Z,34.8
2017-03-11T23:24:05.571Z,34.7
2017-03-11T23:26:05.614Z,34.8
2017-03-11T23:28:08.007Z,34.8
2017-03-11T23:30:05.322Z,34.8
2017-03-11T23:32:05.278Z,34.7
2017-03-11T23:34:05.996Z,34.7
2017-03-11T23:36:05.219Z,34.7
2017-03-11T23:38:06.112Z,34.7
2017-03-11T23:40:06.333Z,34.7
2017-03-11T23:42:05.041Z,34.7
2017-03-11T23:44:08.222Z,34.7
2017-03-11T23:46:05.535Z,34.6
2017-03-11T23:48:05.283Z,34.4
2017-03-11T23:50:05.235Z,34.7
2017-03-11T23:52:05.097Z,34.6
2017-03-11T23:54:05.848Z,34.6
2017-03-11T23:56:13.451Z,34.4
2017-03-11T23:58:05.248Z,34.6
